Shuoumaru — JD3522 — position and weather

sailwx.info

Track history (hours):
 
Tides and Currents Weather Stations Pressure Air Temp Water Temp Dewpoint Dewpoint Depression Visibility Wind Speed Wind Dir Waves Ship Positions

Shuoumaru

Last reported at 2017-Oct-03 05:43 UTC. Time now 2017-Oct-17 16:38 UTC.
Position N 34°35' E 135°03'.
Warning: this ship's position is 14 days out of date.

Length 73 m; draft 4.9 m.

Type: Tanker. MMSI: 431004588.

Date/timePositionNaut miles runAvg speedWind from/ knotsBaromVisibWave heightAir tempDewpointWater temp
2017-Oct-03 05:43N 34°35' E 135°03'17 0.9
2017-Oct-02 10:40N 34°41' E 134°45'514.1
2017-Oct-02 10:17N 34°39' E 134°50'415.0
2017-Oct-02 10:00N 34°37' E 134°55'815.4
2017-Oct-02 09:30N 34°36' E 135°04'713.3
2017-Oct-02 09:00N 34°29' E 135°04'914.7
2017-Oct-02 08:25N 34°21' E 135°01'512.2
2017-Oct-02 07:59N 34°15' E 135°02'4 9.1
2017-Oct-02 07:30N 34°15' E 135°07'0 0.1
2017-Oct-02 07:00N 34°15' E 135°07'0 0.0
2017-Oct-02 06:30N 34°15' E 135°07'0 0.0
2017-Oct-02 06:01N 34°15' E 135°07'0 0.0
2017-Oct-02 05:31N 34°15' E 135°07'0 0.0
2017-Oct-02 05:01N 34°15' E 135°07'0 0.0
2017-Oct-02 04:31N 34°15' E 135°07'0 0.0
2017-Oct-02 04:01N 34°15' E 135°07'0 0.0
2017-Oct-02 03:31N 34°15' E 135°07'0 0.0
2017-Oct-02 03:01N 34°15' E 135°07'0 0.0
2017-Oct-02 02:31N 34°15' E 135°07'0 0.0
2017-Oct-02 02:01N 34°15' E 135°07'0 0.0
2017-Oct-02 01:31N 34°15' E 135°07'0 0.3
2017-Oct-02 01:01N 34°14' E 135°07'3 5.6
2017-Oct-02 00:30N 34°13' E 135°04'  
2017-Sep-27 07:50N 34°10' E 135°02'413.6
2017-Sep-27 07:31N 34°14' E 135°05'2 4.1
2017-Sep-27 07:00N 34°15' E 135°07'0 0.0
2017-Sep-27 06:31N 34°15' E 135°07'0 0.0
2017-Sep-27 06:00N 34°15' E 135°07'0 0.0
2017-Sep-27 05:30N 34°15' E 135°07'0 0.0
2017-Sep-27 05:00N 34°15' E 135°07'0 0.0
2017-Sep-27 04:30N 34°15' E 135°07'0 0.0
2017-Sep-27 04:00N 34°15' E 135°07'0 0.0
2017-Sep-27 03:30N 34°15' E 135°07'0 0.0
2017-Sep-27 03:00N 34°15' E 135°07'0 0.0
2017-Sep-27 02:30N 34°15' E 135°07'0 0.0
2017-Sep-27 02:00N 34°15' E 135°07'0 0.0
2017-Sep-27 01:30N 34°15' E 135°07'0 0.0
2017-Sep-27 01:00N 34°15' E 135°07'0 0.0
2017-Sep-27 00:30N 34°15' E 135°07'0 0.0
2017-Sep-27 00:00N 34°15' E 135°07'0 0.0
2017-Sep-26 23:30N 34°15' E 135°07'0 0.0
2017-Sep-26 23:00N 34°15' E 135°07'0 0.0
2017-Sep-26 22:30N 34°15' E 135°07'0 0.0
2017-Sep-26 22:00N 34°15' E 135°07'1 2.5
2017-Sep-26 21:30N 34°15' E 135°06'0 0.6
2017-Sep-26 20:57N 34°15' E 135°05'0 0.0
2017-Sep-26 20:30N 34°15' E 135°05'0 0.0
2017-Sep-26 20:00N 34°15' E 135°05'0 0.0
2017-Sep-26 19:29N 34°15' E 135°05'0 0.0
2017-Sep-26 18:59N 34°15' E 135°05'0 0.0
2017-Sep-26 18:29N 34°15' E 135°05'0 0.0
2017-Sep-26 17:59N 34°15' E 135°05'0 0.0
2017-Sep-26 17:30N 34°15' E 135°05'0 0.0
2017-Sep-26 17:00N 34°15' E 135°05'0 0.0
2017-Sep-26 09:57N 34°15' E 135°06'0 0.0
2017-Sep-26 09:29N 34°15' E 135°06'0 0.0
2017-Sep-26 08:59N 34°15' E 135°06'0 0.0
2017-Sep-26 08:30N 34°15' E 135°06'0 0.0
2017-Sep-26 07:59N 34°15' E 135°06'0 0.0
2017-Sep-26 07:29N 34°15' E 135°06'0 0.1
2017-Sep-26 07:00N 34°15' E 135°05'2010.0
2017-Sep-26 05:03N 34°34' E 135°03'111.6
2017-Sep-26 04:57N 34°36' E 135°03'6 0.3
2017-Sep-25 09:13N 34°37' E 134°56'311.6
2017-Sep-25 09:00N 34°38' E 134°59'5 9.3
2017-Sep-25 08:30N 34°36' E 135°04'510.3
2017-Sep-25 07:59N 34°30' E 135°04'612.0
2017-Sep-25 07:30N 34°25' E 135°03'712.0
2017-Sep-25 06:55N 34°18' E 134°59'511.3
2017-Sep-25 06:28N 34°13' E 134°59'232 9.8
2017-Sep-24 06:41N 35°01' E 139°36'211.6
2017-Sep-24 06:28N 35°03' E 139°38'612.3
2017-Sep-24 06:00N 35°07' E 139°43'613.0
2017-Sep-24 05:30N 35°13' E 139°46'612.0
2017-Sep-24 05:00N 35°18' E 139°44'611.6
2017-Sep-24 04:30N 35°24' E 139°43'810.4
2017-Sep-24 03:42N 35°22' E 139°53'0 0.2
2017-Sep-24 03:12N 35°22' E 139°53'0 0.0
2017-Sep-24 02:18N 35°22' E 139°53'0 0.0
2017-Sep-24 00:08N 35°22' E 139°53'0 0.3
2017-Sep-23 23:59N 35°22' E 139°53'0 0.0
2017-Sep-23 21:46N 35°22' E 139°53'1 3.6
2017-Sep-23 21:21N 35°22' E 139°51'3 9.0
2017-Sep-23 21:00N 35°24' E 139°48'510.0
2017-Sep-23 20:30N 35°20' E 139°44'611.5
2017-Sep-23 20:00N 35°14' E 139°47'  
Track history (hours):
 
Tides and Currents Weather Stations Pressure Air Temp Water Temp Dewpoint Dewpoint Depression Visibility Wind Speed Wind Dir Waves Ship Positions

Shuoumaru

Last reported at 2017-Oct-03 05:43 UTC. Time now 2017-Oct-17 16:38 UTC.
Position N 34°35' E 135°03'.
Warning: this ship's position is 14 days out of date.

Length 73 m; draft 4.9 m.

Type: Tanker. MMSI: 431004588.

Date/timePositionNaut miles runAvg speedWind from/ knotsBaromVisibWave heightAir tempDewpointWater temp
2017-Oct-03 05:43N 34°35' E 135°03'17 0.9
2017-Oct-02 10:40N 34°41' E 134°45'514.1
2017-Oct-02 10:17N 34°39' E 134°50'415.0
2017-Oct-02 10:00N 34°37' E 134°55'815.4
2017-Oct-02 09:30N 34°36' E 135°04'713.3
2017-Oct-02 09:00N 34°29' E 135°04'914.7
2017-Oct-02 08:25N 34°21' E 135°01'512.2
2017-Oct-02 07:59N 34°15' E 135°02'4 9.1
2017-Oct-02 07:30N 34°15' E 135°07'0 0.1
2017-Oct-02 07:00N 34°15' E 135°07'0 0.0
2017-Oct-02 06:30N 34°15' E 135°07'0 0.0
2017-Oct-02 06:01N 34°15' E 135°07'0 0.0
2017-Oct-02 05:31N 34°15' E 135°07'0 0.0
2017-Oct-02 05:01N 34°15' E 135°07'0 0.0
2017-Oct-02 04:31N 34°15' E 135°07'0 0.0
2017-Oct-02 04:01N 34°15' E 135°07'0 0.0
2017-Oct-02 03:31N 34°15' E 135°07'0 0.0
2017-Oct-02 03:01N 34°15' E 135°07'0 0.0
2017-Oct-02 02:31N 34°15' E 135°07'0 0.0
2017-Oct-02 02:01N 34°15' E 135°07'0 0.0
2017-Oct-02 01:31N 34°15' E 135°07'0 0.3
2017-Oct-02 01:01N 34°14' E 135°07'3 5.6
2017-Oct-02 00:30N 34°13' E 135°04'  
2017-Sep-27 07:50N 34°10' E 135°02'413.6
2017-Sep-27 07:31N 34°14' E 135°05'2 4.1
2017-Sep-27 07:00N 34°15' E 135°07'0 0.0
2017-Sep-27 06:31N 34°15' E 135°07'0 0.0
2017-Sep-27 06:00N 34°15' E 135°07'0 0.0
2017-Sep-27 05:30N 34°15' E 135°07'0 0.0
2017-Sep-27 05:00N 34°15' E 135°07'0 0.0
2017-Sep-27 04:30N 34°15' E 135°07'0 0.0
2017-Sep-27 04:00N 34°15' E 135°07'0 0.0
2017-Sep-27 03:30N 34°15' E 135°07'0 0.0
2017-Sep-27 03:00N 34°15' E 135°07'0 0.0
2017-Sep-27 02:30N 34°15' E 135°07'0 0.0
2017-Sep-27 02:00N 34°15' E 135°07'0 0.0
2017-Sep-27 01:30N 34°15' E 135°07'0 0.0
2017-Sep-27 01:00N 34°15' E 135°07'0 0.0
2017-Sep-27 00:30N 34°15' E 135°07'0 0.0
2017-Sep-27 00:00N 34°15' E 135°07'0 0.0
2017-Sep-26 23:30N 34°15' E 135°07'0 0.0
2017-Sep-26 23:00N 34°15' E 135°07'0 0.0
2017-Sep-26 22:30N 34°15' E 135°07'0 0.0
2017-Sep-26 22:00N 34°15' E 135°07'1 2.5
2017-Sep-26 21:30N 34°15' E 135°06'0 0.6
2017-Sep-26 20:57N 34°15' E 135°05'0 0.0
2017-Sep-26 20:30N 34°15' E 135°05'0 0.0
2017-Sep-26 20:00N 34°15' E 135°05'0 0.0
2017-Sep-26 19:29N 34°15' E 135°05'0 0.0
2017-Sep-26 18:59N 34°15' E 135°05'0 0.0
2017-Sep-26 18:29N 34°15' E 135°05'0 0.0
2017-Sep-26 17:59N 34°15' E 135°05'0 0.0
2017-Sep-26 17:30N 34°15' E 135°05'0 0.0
2017-Sep-26 17:00N 34°15' E 135°05'0 0.0
2017-Sep-26 09:57N 34°15' E 135°06'0 0.0
2017-Sep-26 09:29N 34°15' E 135°06'0 0.0
2017-Sep-26 08:59N 34°15' E 135°06'0 0.0
2017-Sep-26 08:30N 34°15' E 135°06'0 0.0
2017-Sep-26 07:59N 34°15' E 135°06'0 0.0
2017-Sep-26 07:29N 34°15' E 135°06'0 0.1
2017-Sep-26 07:00N 34°15' E 135°05'2010.0
2017-Sep-26 05:03N 34°34' E 135°03'111.6
2017-Sep-26 04:57N 34°36' E 135°03'6 0.3
2017-Sep-25 09:13N 34°37' E 134°56'311.6
2017-Sep-25 09:00N 34°38' E 134°59'5 9.3
2017-Sep-25 08:30N 34°36' E 135°04'510.3
2017-Sep-25 07:59N 34°30' E 135°04'612.0
2017-Sep-25 07:30N 34°25' E 135°03'712.0
2017-Sep-25 06:55N 34°18' E 134°59'511.3
2017-Sep-25 06:28N 34°13' E 134°59'232 9.8
2017-Sep-24 06:41N 35°01' E 139°36'211.6
2017-Sep-24 06:28N 35°03' E 139°38'612.3
2017-Sep-24 06:00N 35°07' E 139°43'613.0
2017-Sep-24 05:30N 35°13' E 139°46'612.0
2017-Sep-24 05:00N 35°18' E 139°44'611.6
2017-Sep-24 04:30N 35°24' E 139°43'810.4
2017-Sep-24 03:42N 35°22' E 139°53'0 0.2
2017-Sep-24 03:12N 35°22' E 139°53'0 0.0
2017-Sep-24 02:18N 35°22' E 139°53'0 0.0
2017-Sep-24 00:08N 35°22' E 139°53'0 0.3
2017-Sep-23 23:59N 35°22' E 139°53'0 0.0
2017-Sep-23 21:46N 35°22' E 139°53'1 3.6
2017-Sep-23 21:21N 35°22' E 139°51'3 9.0
2017-Sep-23 21:00N 35°24' E 139°48'510.0
2017-Sep-23 20:30N 35°20' E 139°44'611.5
2017-Sep-23 20:00N 35°14' E 139°47'  

Dump ship's entire track history